Terminal Aerodrome Forecast
Issued by NWS Jacksonville, FL

Home | Current Version | Previous Version | Text Only | Print | Product List | Glossary On
Versions: 1 2 3 4 5 6 7 8 9 10 11 12 13 14 15 16 17 18 19 20 21 22 23 24 25 26 27 28 29 30 31 32 33
870
FTUS42 KJAX 231811 AAB
TAFJAX
TAF AMD
KJAX 231811Z 2318/2418 18011KT P6SM VCSH SCT035 BKN090
      TEMPO 2318/2322 VRB12G22KT 3SM SHRA OVC025
     FM240100 17010KT P6SM VCSH OVC020
     FM240700 22005KT P6SM BKN015
     FM241500 25009KT P6SM SCT035=

USA.gov is the U.S. government's official web portal to all federal, state and local government web resources and services.